createdAt,value
2022-12-26T00:01:32.449Z,11.82
2022-12-26T00:04:52.302Z,10.43
2022-12-26T00:07:06.153Z,11.20
2022-12-26T00:09:40.997Z,11.43
2022-12-26T00:12:17.595Z,10.55
2022-12-26T00:14:56.350Z,12.65
2022-12-26T00:17:34.705Z,12.68
2022-12-26T00:20:09.771Z,13.43
2022-12-26T00:22:44.896Z,10.07
2022-12-26T00:25:19.571Z,11.05
2022-12-26T00:27:55.123Z,10.70
2022-12-26T00:30:33.802Z,10.60
2022-12-26T00:33:09.036Z,7.88
2022-12-26T00:35:45.031Z,9.00
2022-12-26T00:38:22.241Z,11.15
2022-12-26T00:40:58.900Z,12.82
2022-12-26T00:43:34.233Z,9.05
2022-12-26T00:46:12.413Z,8.32
2022-12-26T00:48:52.648Z,9.40
2022-12-26T00:51:28.499Z,7.85
2022-12-26T00:54:04.340Z,8.40
2022-12-26T00:56:42.931Z,6.55
2022-12-26T00:59:19.085Z,8.73
2022-12-26T01:01:56.323Z,7.15
2022-12-26T01:04:32.802Z,6.82
2022-12-26T01:07:08.110Z,9.73
2022-12-26T01:09:45.148Z,9.55
2022-12-26T01:12:20.594Z,9.60
2022-12-26T01:14:57.629Z,5.82
2022-12-26T01:17:34.160Z,7.57
2022-12-26T01:20:09.849Z,8.40
2022-12-26T01:22:44.374Z,8.88
2022-12-26T01:25:20.177Z,11.63
2022-12-26T01:27:55.183Z,7.70
2022-12-26T01:30:30.834Z,7.38
2022-12-26T01:33:07.253Z,8.68
2022-12-26T01:35:41.891Z,9.82
2022-12-26T01:38:16.299Z,7.75
2022-12-26T01:41:12.935Z,7.40
2022-12-26T01:44:00.604Z,7.35
2022-12-26T01:46:36.237Z,5.50
2022-12-26T01:49:18.748Z,10.65
2022-12-26T01:51:56.043Z,7.03
2022-12-26T01:54:40.279Z,5.85
2022-12-26T01:57:18.732Z,7.28
2022-12-26T01:59:53.461Z,7.03
2022-12-26T02:02:29.850Z,9.32
2022-12-26T02:05:23.803Z,6.22
2022-12-26T02:07:58.687Z,6.43
2022-12-26T02:10:35.359Z,6.20
2022-12-26T02:13:11.251Z,4.97
2022-12-26T02:15:45.985Z,7.55
2022-12-26T02:18:20.742Z,7.30
2022-12-26T02:21:00.773Z,7.88
2022-12-26T02:23:51.601Z,8.75
2022-12-26T02:26:42.987Z,8.18
2022-12-26T02:29:33.888Z,8.23
2022-12-26T02:32:12.232Z,6.68
2022-12-26T02:34:52.655Z,10.80
2022-12-26T02:37:37.357Z,9.98
2022-12-26T02:40:22.884Z,12.93
2022-12-26T02:43:02.872Z,11.77
2022-12-26T02:46:00.187Z,10.23
2022-12-26T02:48:44.144Z,10.25
2022-12-26T02:51:38.084Z,13.80
2022-12-26T02:54:32.906Z,13.57
2022-12-26T02:57:28.312Z,10.35
2022-12-26T03:00:22.293Z,11.48
2022-12-26T03:03:26.024Z,12.05
2022-12-26T03:06:20.617Z,9.05
2022-12-26T03:09:13.883Z,12.23
2022-12-26T03:12:06.216Z,9.98
2022-12-26T03:14:43.538Z,12.10
2022-12-26T03:17:29.392Z,13.25
2022-12-26T03:20:08.041Z,15.95
2022-12-26T03:22:46.339Z,8.88
2022-12-26T03:25:40.735Z,9.88
2022-12-26T03:28:15.295Z,11.38
2022-12-26T03:30:52.472Z,11.73
2022-12-26T03:33:48.304Z,10.52
2022-12-26T03:36:26.725Z,10.27
2022-12-26T03:39:09.517Z,10.10
2022-12-26T03:42:06.050Z,12.35
2022-12-26T03:45:00.350Z,12.35
2022-12-26T03:47:55.396Z,11.55
2022-12-26T03:50:52.105Z,9.13
2022-12-26T03:53:44.884Z,9.50
2022-12-26T03:56:41.109Z,9.60
2022-12-26T03:59:34.562Z,9.70
2022-12-26T04:02:27.087Z,10.43
2022-12-26T04:05:20.582Z,7.88
2022-12-26T04:08:18.255Z,10.15
2022-12-26T04:11:10.859Z,10.85
2022-12-26T04:14:08.210Z,7.40
2022-12-26T04:17:01.081Z,13.45
2022-12-26T04:19:49.422Z,12.00
2022-12-26T04:22:43.492Z,12.10
2022-12-26T04:25:50.721Z,12.10
2022-12-26T04:28:42.965Z,12.48
2022-12-26T04:31:38.528Z,8.50
2022-12-26T04:34:32.068Z,9.20
2022-12-26T04:37:24.165Z,9.65
2022-12-26T04:40:16.529Z,12.57
2022-12-26T04:43:48.376Z,14.85
2022-12-26T04:46:03.133Z,14.20
2022-12-26T04:49:02.643Z,17.52
2022-12-26T04:51:38.136Z,11.35
2022-12-26T04:54:12.605Z,14.90
2022-12-26T04:56:47.737Z,12.77
2022-12-26T04:59:22.796Z,13.15
2022-12-26T05:02:13.936Z,13.95
2022-12-26T05:05:06.713Z,14.98
2022-12-26T05:07:58.397Z,15.35
2022-12-26T05:10:33.679Z,9.13
2022-12-26T05:13:08.604Z,11.63
2022-12-26T05:15:55.367Z,13.73
2022-12-26T05:18:45.549Z,11.82
2022-12-26T05:21:41.934Z,19.55
2022-12-26T05:24:33.983Z,16.65
2022-12-26T05:27:24.588Z,13.23
2022-12-26T05:29:59.064Z,18.30
2022-12-26T05:32:50.579Z,12.57
2022-12-26T05:35:28.739Z,19.00
2022-12-26T05:38:06.060Z,11.55
2022-12-26T05:40:41.805Z,12.23
2022-12-26T05:43:17.442Z,11.82
2022-12-26T05:45:53.886Z,16.00
2022-12-26T05:48:29.409Z,12.15
2022-12-26T05:51:06.771Z,17.02
2022-12-26T05:53:44.411Z,13.88
2022-12-26T05:56:21.718Z,17.65
2022-12-26T05:59:00.674Z,13.43
2022-12-26T06:01:36.369Z,26.38
2022-12-26T06:04:12.123Z,15.10
2022-12-26T06:06:48.761Z,14.63
2022-12-26T06:09:27.193Z,17.67
2022-12-26T06:12:01.756Z,17.00
2022-12-26T06:14:36.654Z,15.98
2022-12-26T06:17:12.356Z,14.77
2022-12-26T06:19:47.468Z,15.25
2022-12-26T06:22:24.850Z,13.55
2022-12-26T06:25:01.068Z,11.20
2022-12-26T06:27:36.250Z,14.70
2022-12-26T06:30:13.131Z,11.70
2022-12-26T06:32:47.558Z,15.45
2022-12-26T06:35:22.399Z,19.95
2022-12-26T06:37:58.239Z,15.30
2022-12-26T06:40:35.143Z,13.43
2022-12-26T06:43:10.919Z,18.25
2022-12-26T06:45:49.564Z,14.82
2022-12-26T06:48:27.829Z,14.73
2022-12-26T06:51:05.718Z,14.63
2022-12-26T06:53:43.583Z,15.00
2022-12-26T06:56:21.090Z,17.02
2022-12-26T06:58:58.795Z,11.27
2022-12-26T07:01:34.658Z,13.70
2022-12-26T07:04:09.596Z,15.60
2022-12-26T07:06:44.517Z,18.52
2022-12-26T07:09:20.028Z,18.75
2022-12-26T07:11:57.986Z,17.13
2022-12-26T07:14:32.739Z,13.02
2022-12-26T07:17:09.100Z,16.35
2022-12-26T07:19:44.357Z,15.88
2022-12-26T07:22:19.332Z,13.10
2022-12-26T07:24:54.783Z,13.85
2022-12-26T07:27:32.828Z,15.80
2022-12-26T07:30:08.071Z,17.83
2022-12-26T07:32:43.092Z,17.83
2022-12-26T07:35:17.598Z,19.38
2022-12-26T07:37:52.775Z,13.40
2022-12-26T07:40:51.427Z,14.48
2022-12-26T07:43:29.182Z,12.35
2022-12-26T07:46:03.776Z,11.07
2022-12-26T07:48:38.532Z,11.65
2022-12-26T07:51:14.588Z,14.68
2022-12-26T07:53:50.382Z,16.38
2022-12-26T07:56:25.621Z,19.67
2022-12-26T07:59:02.404Z,15.50
2022-12-26T08:01:38.132Z,16.60
2022-12-26T08:04:13.210Z,14.70
2022-12-26T08:06:47.892Z,15.77
2022-12-26T08:09:22.764Z,16.85
2022-12-26T08:11:58.186Z,16.45
2022-12-26T08:14:35.063Z,18.83
2022-12-26T08:17:18.482Z,16.98
2022-12-26T08:19:52.847Z,15.45
2022-12-26T08:22:27.767Z,13.38
2022-12-26T08:25:02.917Z,18.92
2022-12-26T08:27:41.183Z,14.27
2022-12-26T08:30:18.364Z,12.15
2022-12-26T08:32:53.769Z,23.55
2022-12-26T08:35:28.907Z,13.90
2022-12-26T08:38:04.007Z,16.10
2022-12-26T08:40:43.565Z,12.52
2022-12-26T08:43:39.099Z,13.88
2022-12-26T08:46:18.209Z,19.50
2022-12-26T08:48:54.242Z,17.90
2022-12-26T08:51:30.585Z,18.02
2022-12-26T08:54:07.127Z,15.98
2022-12-26T08:56:43.450Z,18.25
2022-12-26T08:59:21.632Z,17.55
2022-12-26T09:02:01.248Z,16.38
2022-12-26T09:04:38.682Z,15.35
2022-12-26T09:07:14.240Z,18.48
2022-12-26T09:09:49.278Z,17.83
2022-12-26T09:12:23.983Z,17.38
2022-12-26T09:14:59.543Z,16.95
2022-12-26T09:17:37.265Z,16.63
2022-12-26T09:20:12.360Z,18.15
2022-12-26T09:22:57.176Z,15.70
2022-12-26T09:25:32.306Z,18.75
2022-12-26T09:28:07.398Z,15.52
2022-12-26T09:30:42.864Z,16.85
2022-12-26T09:33:19.574Z,12.00
2022-12-26T09:35:58.333Z,21.25
2022-12-26T09:38:38.599Z,17.35
2022-12-26T09:41:18.633Z,18.60
2022-12-26T09:43:58.815Z,17.90
2022-12-26T09:46:37.510Z,17.98
2022-12-26T09:49:17.357Z,13.15
2022-12-26T09:51:53.804Z,19.77
2022-12-26T09:54:32.873Z,16.60
2022-12-26T09:57:14.806Z,15.20
2022-12-26T09:59:52.569Z,15.98
2022-12-26T10:02:29.303Z,14.50
2022-12-26T10:05:06.095Z,15.90
2022-12-26T10:07:43.414Z,15.75
2022-12-26T10:10:19.645Z,11.68
2022-12-26T10:13:00.770Z,18.20
2022-12-26T10:15:39.807Z,14.38
2022-12-26T10:18:26.504Z,13.73
2022-12-26T10:21:12.481Z,17.33
2022-12-26T10:23:48.077Z,16.65
2022-12-26T10:26:25.161Z,14.85
2022-12-26T10:29:01.979Z,15.18
2022-12-26T10:31:40.156Z,15.27
2022-12-26T10:34:17.907Z,13.35
2022-12-26T10:36:56.149Z,17.38
2022-12-26T10:39:34.456Z,14.23
2022-12-26T10:42:14.133Z,18.95
2022-12-26T10:44:48.743Z,15.50
2022-12-26T10:47:27.771Z,12.48
2022-12-26T10:50:03.681Z,13.32
2022-12-26T10:52:45.100Z,16.30
2022-12-26T10:55:28.829Z,13.52
2022-12-26T10:58:08.523Z,13.20
2022-12-26T11:00:43.784Z,14.02
2022-12-26T11:03:20.110Z,16.52
2022-12-26T11:06:07.652Z,14.50
2022-12-26T11:08:45.822Z,15.15
2022-12-26T11:11:26.438Z,14.18
2022-12-26T11:14:03.305Z,15.10
2022-12-26T11:16:39.612Z,15.40
2022-12-26T11:19:31.105Z,12.98
2022-12-26T11:22:26.752Z,16.23
2022-12-26T11:25:20.467Z,16.63
2022-12-26T11:27:55.559Z,12.68
2022-12-26T11:30:31.918Z,18.98
2022-12-26T11:33:15.018Z,11.68
2022-12-26T11:35:59.515Z,20.83
2022-12-26T11:38:45.291Z,19.25
2022-12-26T11:41:40.731Z,17.98
2022-12-26T11:44:25.936Z,14.65
2022-12-26T11:47:02.427Z,17.10
2022-12-26T11:49:38.872Z,14.65
2022-12-26T11:52:27.137Z,13.82
2022-12-26T11:55:01.733Z,19.42
2022-12-26T11:57:38.785Z,13.68
2022-12-26T12:00:23.904Z,19.02
2022-12-26T12:02:58.499Z,16.38
2022-12-26T12:05:38.873Z,13.38
2022-12-26T12:08:28.742Z,11.95
2022-12-26T12:11:13.605Z,18.35
2022-12-26T12:14:20.269Z,18.58
2022-12-26T12:17:02.057Z,17.23
2022-12-26T12:19:47.934Z,15.00
2022-12-26T12:22:46.609Z,15.23
2022-12-26T12:25:38.100Z,15.55
2022-12-26T12:28:18.772Z,16.80
2022-12-26T12:30:56.867Z,18.83
2022-12-26T12:33:43.969Z,17.08
2022-12-26T12:36:21.851Z,17.42
2022-12-26T12:39:05.476Z,15.68
2022-12-26T12:41:46.311Z,14.10
2022-12-26T12:44:23.846Z,17.58
2022-12-26T12:47:00.471Z,15.50
2022-12-26T12:49:49.616Z,15.65
2022-12-26T12:52:30.712Z,19.42
2022-12-26T12:55:28.344Z,18.45
2022-12-26T12:58:06.612Z,16.48
2022-12-26T13:00:46.632Z,15.55
2022-12-26T13:03:30.845Z,17.10
2022-12-26T13:06:11.622Z,16.63
2022-12-26T13:08:47.778Z,15.68
2022-12-26T13:11:26.636Z,12.77
2022-12-26T13:14:04.951Z,13.77
2022-12-26T13:16:48.593Z,12.75
2022-12-26T13:19:24.756Z,15.52
2022-12-26T13:22:03.601Z,12.10
2022-12-26T13:24:38.606Z,15.40
2022-12-26T13:27:21.811Z,17.98
2022-12-26T13:29:56.300Z,15.38
2022-12-26T13:32:32.220Z,14.68
2022-12-26T13:35:07.702Z,12.20
2022-12-26T13:37:59.578Z,13.82
2022-12-26T13:40:36.582Z,15.18
2022-12-26T13:43:30.296Z,19.67
2022-12-26T13:46:04.979Z,13.65
2022-12-26T13:49:11.759Z,15.57
2022-12-26T13:51:48.010Z,16.95
2022-12-26T13:54:23.703Z,14.55
2022-12-26T13:57:23.995Z,13.48
2022-12-26T14:00:10.603Z,13.70
2022-12-26T14:05:54.682Z,16.65
2022-12-26T14:08:34.818Z,14.35
2022-12-26T14:11:15.668Z,14.02
2022-12-26T14:14:00.567Z,13.15
2022-12-26T14:16:38.677Z,13.60
2022-12-26T14:19:17.880Z,14.82
2022-12-26T14:21:56.092Z,12.95
2022-12-26T14:24:35.594Z,15.43
2022-12-26T14:27:27.634Z,17.63
2022-12-26T14:30:10.130Z,11.43
2022-12-26T14:32:48.661Z,13.65
2022-12-26T14:35:28.848Z,12.98
2022-12-26T14:38:09.655Z,19.27
2022-12-26T14:40:44.166Z,12.38
2022-12-26T14:43:33.908Z,11.98
2022-12-26T14:46:30.364Z,12.95
2022-12-26T14:49:19.400Z,16.73
2022-12-26T14:51:54.131Z,13.50
2022-12-26T14:54:51.092Z,12.93
2022-12-26T14:57:58.183Z,14.60
2022-12-26T15:00:37.474Z,11.93
2022-12-26T15:03:35.171Z,12.13
2022-12-26T15:06:42.385Z,13.02
2022-12-26T15:09:33.790Z,10.27
2022-12-26T15:12:21.220Z,16.23
2022-12-26T15:15:17.214Z,11.93
2022-12-26T15:17:55.918Z,14.98
2022-12-26T15:20:43.158Z,9.98
2022-12-26T15:23:26.861Z,13.57
2022-12-26T15:26:18.902Z,11.20
2022-12-26T15:29:03.081Z,12.73
2022-12-26T15:31:43.408Z,12.80
2022-12-26T15:34:32.582Z,16.52
2022-12-26T15:37:10.662Z,19.35
2022-12-26T15:39:50.609Z,11.32
2022-12-26T15:42:29.400Z,11.65
2022-12-26T15:45:21.751Z,10.48
2022-12-26T15:48:02.145Z,12.85
2022-12-26T15:50:38.754Z,11.77
2022-12-26T15:53:18.101Z,13.73
2022-12-26T15:56:10.347Z,14.60
2022-12-26T15:58:54.232Z,11.30
2022-12-26T16:01:46.975Z,11.77
2022-12-26T16:04:26.190Z,10.50
2022-12-26T16:07:08.474Z,11.57
2022-12-26T16:09:46.927Z,10.00
2022-12-26T16:12:25.997Z,11.98
2022-12-26T16:15:07.882Z,11.25
2022-12-26T16:17:45.513Z,10.55
2022-12-26T16:20:44.307Z,13.23
2022-12-26T16:23:19.947Z,8.98
2022-12-26T16:25:55.172Z,13.57
2022-12-26T16:28:32.766Z,11.32
2022-12-26T16:31:07.958Z,12.00
2022-12-26T16:33:46.211Z,10.13
2022-12-26T16:36:24.019Z,11.70
2022-12-26T16:38:59.137Z,8.05
2022-12-26T16:41:34.454Z,12.23
2022-12-26T16:44:30.421Z,10.57
2022-12-26T16:47:06.603Z,9.13
2022-12-26T16:49:47.009Z,9.13
2022-12-26T16:52:46.218Z,10.20
2022-12-26T16:55:49.185Z,11.80
2022-12-26T16:58:31.082Z,8.52
2022-12-26T17:01:12.627Z,10.23
2022-12-26T17:03:57.079Z,10.05
2022-12-26T17:06:37.077Z,14.95
2022-12-26T17:09:17.125Z,10.85
2022-12-26T17:11:58.155Z,12.05
2022-12-26T17:14:36.364Z,10.82
2022-12-26T17:17:13.411Z,10.02
2022-12-26T17:19:53.749Z,13.35
2022-12-26T17:22:40.402Z,10.70
2022-12-26T17:25:29.529Z,11.48
2022-12-26T17:28:28.042Z,13.70
2022-12-26T17:31:18.601Z,9.63
2022-12-26T17:33:54.873Z,9.52
2022-12-26T17:39:34.154Z,10.63
2022-12-26T17:42:12.053Z,9.88
2022-12-26T17:44:49.850Z,14.80
2022-12-26T17:47:27.899Z,13.52
2022-12-26T17:50:03.709Z,9.00
2022-12-26T17:52:39.455Z,10.43
2022-12-26T17:55:24.555Z,12.52
2022-12-26T17:57:59.889Z,11.18
2022-12-26T18:00:38.339Z,11.13
2022-12-26T18:03:14.090Z,11.13
2022-12-26T18:05:50.753Z,9.40
2022-12-26T18:08:32.017Z,8.85
2022-12-26T18:11:14.561Z,14.60
2022-12-26T18:13:50.260Z,9.68
2022-12-26T18:16:29.953Z,8.98
2022-12-26T18:19:05.567Z,13.57
2022-12-26T18:21:41.295Z,10.13
2022-12-26T18:24:17.026Z,9.57
2022-12-26T18:26:56.476Z,10.68
2022-12-26T18:29:31.951Z,8.70
2022-12-26T18:32:07.746Z,9.65
2022-12-26T18:34:43.420Z,9.38
2022-12-26T18:37:19.818Z,9.38
2022-12-26T18:39:55.164Z,12.13
2022-12-26T18:42:33.277Z,10.85
2022-12-26T18:45:09.122Z,9.50
2022-12-26T18:47:45.309Z,10.15
2022-12-26T18:50:21.915Z,10.43
2022-12-26T18:52:57.421Z,10.35
2022-12-26T18:55:33.554Z,7.93
2022-12-26T18:58:12.159Z,9.52
2022-12-26T19:00:47.919Z,9.55
2022-12-26T19:03:23.465Z,12.07
2022-12-26T19:05:59.137Z,8.55
2022-12-26T19:08:35.689Z,8.10
2022-12-26T19:11:11.273Z,9.10
2022-12-26T19:13:49.411Z,7.75
2022-12-26T19:16:25.144Z,8.25
2022-12-26T19:19:01.382Z,8.85
2022-12-26T19:21:36.468Z,6.45
2022-12-26T19:24:12.121Z,6.35
2022-12-26T19:26:47.461Z,12.38
2022-12-26T19:29:25.745Z,9.10
2022-12-26T19:32:01.063Z,8.90
2022-12-26T19:34:36.467Z,7.38
2022-12-26T19:37:12.515Z,6.60
2022-12-26T19:39:48.310Z,9.07
2022-12-26T19:42:23.963Z,8.65
2022-12-26T19:45:01.952Z,8.50
2022-12-26T19:47:38.213Z,6.82
2022-12-26T19:50:15.950Z,8.85
2022-12-26T19:52:52.026Z,10.40
2022-12-26T19:55:27.955Z,12.35
2022-12-26T19:58:03.720Z,9.18
2022-12-26T20:00:42.342Z,10.52
2022-12-26T20:03:17.979Z,11.25
2022-12-26T20:05:53.931Z,12.70
2022-12-26T20:08:29.513Z,10.88
2022-12-26T20:11:12.057Z,13.75
2022-12-26T20:13:49.036Z,11.02
2022-12-26T20:19:24.604Z,11.75
2022-12-26T20:22:01.075Z,12.15
2022-12-26T20:24:36.844Z,10.00
2022-12-26T20:27:12.631Z,11.45
2022-12-26T20:29:48.339Z,9.30
2022-12-26T20:32:26.598Z,11.43
2022-12-26T20:35:02.130Z,12.30
2022-12-26T20:37:37.989Z,10.98
2022-12-26T20:40:14.297Z,11.70
2022-12-26T20:42:50.185Z,10.60
2022-12-26T20:45:25.786Z,12.30
2022-12-26T20:48:03.973Z,9.75
2022-12-26T20:50:39.402Z,12.10
2022-12-26T20:53:15.498Z,11.93
2022-12-26T20:55:54.720Z,11.43
2022-12-26T20:58:31.983Z,12.45
2022-12-26T21:01:09.100Z,10.10
2022-12-26T21:03:48.210Z,10.82
2022-12-26T21:06:25.395Z,10.02
2022-12-26T21:09:01.820Z,11.88
2022-12-26T21:11:39.672Z,10.65
2022-12-26T21:14:17.816Z,13.05
2022-12-26T21:16:55.203Z,13.23
2022-12-26T21:19:33.748Z,13.38
2022-12-26T21:22:08.885Z,12.23
2022-12-26T21:24:44.893Z,13.43
2022-12-26T21:27:20.151Z,15.13
2022-12-26T21:29:55.701Z,13.07
2022-12-26T21:32:31.016Z,11.63
2022-12-26T21:35:09.417Z,13.40
2022-12-26T21:37:53.803Z,15.15
2022-12-26T21:40:29.326Z,12.40
2022-12-26T21:43:04.668Z,13.32
2022-12-26T21:45:43.289Z,12.02
2022-12-26T21:48:18.635Z,12.07
2022-12-26T21:50:58.061Z,12.43
2022-12-26T21:53:33.478Z,9.40
2022-12-26T21:56:12.352Z,12.75
2022-12-26T21:59:04.055Z,12.73
2022-12-26T22:01:40.084Z,9.23
2022-12-26T22:04:21.496Z,9.05
2022-12-26T22:07:00.808Z,7.97
2022-12-26T22:09:37.217Z,5.10
2022-12-26T22:12:31.263Z,6.30
2022-12-26T22:15:06.592Z,8.88
2022-12-26T22:17:43.425Z,5.72
2022-12-26T22:20:19.039Z,6.38
2022-12-26T22:22:57.484Z,8.77
2022-12-26T22:25:32.918Z,6.68
2022-12-26T22:28:09.319Z,7.47
2022-12-26T22:30:50.878Z,6.78
2022-12-26T22:33:27.153Z,6.03
2022-12-26T22:36:09.730Z,9.10
2022-12-26T22:38:48.324Z,6.53
2022-12-26T22:41:24.216Z,5.35
2022-12-26T22:44:03.428Z,5.55
2022-12-26T22:46:38.743Z,5.20
2022-12-26T22:49:15.181Z,3.33
2022-12-26T22:51:50.469Z,6.70
2022-12-26T22:54:29.048Z,4.80
2022-12-26T22:57:04.414Z,5.50
2022-12-26T23:00:07.546Z,3.65
2022-12-26T23:02:36.086Z,6.13
2022-12-26T23:05:15.852Z,5.97
2022-12-26T23:07:51.740Z,6.32
2022-12-26T23:10:30.918Z,5.28
2022-12-26T23:13:07.158Z,4.15
2022-12-26T23:15:51.666Z,7.30
2022-12-26T23:18:51.525Z,3.58
2022-12-26T23:21:44.015Z,4.38
2022-12-26T23:24:22.574Z,5.57
2022-12-26T23:27:23.825Z,5.72
2022-12-26T23:30:15.797Z,8.02
2022-12-26T23:32:54.281Z,6.88
2022-12-26T23:35:30.428Z,6.20
2022-12-26T23:38:06.082Z,7.60
2022-12-26T23:40:41.284Z,6.93
2022-12-26T23:43:19.012Z,6.68
2022-12-26T23:45:55.653Z,5.93
2022-12-26T23:48:31.572Z,5.68
2022-12-26T23:51:08.701Z,5.50
2022-12-26T23:53:44.660Z,6.25
2022-12-26T23:56:21.662Z,7.07
2022-12-26T23:58:59.349Z,6.18
